Neck City, Missouri
Current Conditions -  °F | °C
As of 9:53 AM on Friday 28 Nov 2014 (Local Time) from KJLN Reporting Station
Clear Clear  
Wind Chill: 52°   Ceiling: Unl
Heat Index: 52°   Visibility: 10mi
Dew Point: 29°   Wind: 23mph
Humidity: 41%   Direction: 210°SSW
Pressure: 30.07"   Gusts: 31mph
Location:  37.26°N, 94.44°W
Report Text: KJLN 281553Z 21020G27KT 10SM CLR 11/M02 A3007 RMK AO2 PK WND 21033/1535 SLP184 T01111017
Loading
Personal Weather Stations






























Interactive Weather Map New forecast layout! Learn more

10-Day Weather Forecast

Advertisements
Track Severe Weather on mobile